Time;durP1;ratioP1;P1;durP2;ratioP2;P2;SDS_P1;SDS_P2;PMS_P1;PMS_P2;Temp;Humidity;BMP_temperature;BMP_pressure;BME280_temperature;BME280_humidity;BME280_pressure;Samples;Min_cycle;Max_cycle;Signal;HPM_P1;HPM_P2
2023/09/13 00:00:18;;;;;;;14.47;11.53;;;;;;;16.93;79.42;100483.88;4997597;28;20243;-75
2023/09/13 00:02:45;;;;;;;14.37;11.67;;;;;;;16.92;79.73;100493.00;5013399;28;20203;-75
2023/09/13 00:05:11;;;;;;;13.83;11.17;;;;;;;16.89;79.59;100485.75;5011224;28;20219;-76
2023/09/13 00:07:37;;;;;;;12.57;10.73;;;;;;;16.87;79.82;100480.00;5011761;28;20744;-76
2023/09/13 00:10:04;;;;;;;15.30;11.33;;;;;;;16.85;79.74;100476.97;5017623;28;20220;-75
2023/09/13 00:12:31;;;;;;;17.47;11.33;;;;;;;16.85;79.60;100484.97;5013646;28;20211;-75
2023/09/13 00:14:57;;;;;;;12.53;10.63;;;;;;;16.83;79.83;100483.78;5015298;28;20227;-75
2023/09/13 00:17:26;;;;;;;13.43;10.77;;;;;;;16.81;79.82;100478.81;5013924;28;20202;-75
2023/09/13 00:19:56;;;;;;;13.20;11.00;;;;;;;16.81;79.71;100478.06;4994496;28;20282;-76
2023/09/13 00:22:22;;;;;;;15.13;11.20;;;;;;;16.80;80.05;100482.63;5013056;28;20286;-75
2023/09/13 00:24:48;;;;;;;13.77;10.50;;;;;;;16.78;80.17;100473.47;5015801;28;20843;-76
2023/09/13 00:27:15;;;;;;;14.33;11.97;;;;;;;16.77;80.33;100475.34;5013934;28;20203;-75
2023/09/13 00:29:41;;;;;;;14.17;11.23;;;;;;;16.75;80.47;100476.84;5014360;28;20650;-75
2023/09/13 00:32:08;;;;;;;12.33;10.60;;;;;;;16.74;81.02;100483.31;5018089;28;20262;-75
2023/09/13 00:34:35;;;;;;;11.90;10.70;;;;;;;16.71;80.93;100479.50;5015258;28;20701;-76
2023/09/13 00:37:02;;;;;;;14.10;11.87;;;;;;;16.70;80.55;100477.19;4998474;28;20226;-75
2023/09/13 00:39:28;;;;;;;20.20;12.17;;;;;;;16.70;80.49;100466.53;5022015;28;20227;-76
2023/09/13 00:41:57;;;;;;;14.47;11.57;;;;;;;16.69;80.40;100465.00;4997396;28;20213;-75
2023/09/13 00:44:23;;;;;;;13.20;10.17;;;;;;;16.68;80.73;100458.13;5000761;28;20234;-75
2023/09/13 00:46:50;;;;;;;14.67;11.87;;;;;;;16.66;79.26;100461.16;4998985;28;20248;-75
2023/09/13 00:49:17;;;;;;;12.83;11.53;;;;;;;16.63;77.86;100443.25;4996849;28;20222;-75
2023/09/13 00:51:45;;;;;;;14.50;12.33;;;;;;;16.63;77.89;100448.59;5003749;28;20208;-76
2023/09/13 00:54:11;;;;;;;14.30;11.60;;;;;;;16.62;79.16;100439.03;5004889;28;20217;-76
2023/09/13 00:56:39;;;;;;;16.20;12.27;;;;;;;16.63;79.41;100439.81;5004950;28;20210;-76
2023/09/13 00:59:08;;;;;;;16.73;11.57;;;;;;;16.63;79.64;100435.25;5004671;28;20222;-76
2023/09/13 01:01:38;;;;;;;14.70;11.30;;;;;;;16.65;80.35;100432.22;5017574;28;20231;-75
2023/09/13 01:04:05;;;;;;;14.73;11.47;;;;;;;16.65;80.43;100424.22;5019175;28;20229;-75
2023/09/13 01:06:34;;;;;;;12.53;11.17;;;;;;;16.65;80.50;100417.00;5006572;28;20563;-75
2023/09/13 01:09:04;;;;;;;13.67;11.27;;;;;;;16.66;81.04;100415.09;5002647;28;20554;-76
2023/09/13 01:11:30;;;;;;;13.60;11.57;;;;;;;16.65;81.00;100414.31;5003701;28;20199;-76
2023/09/13 01:13:56;;;;;;;13.47;11.40;;;;;;;16.66;80.75;100417.75;5020504;28;20213;-75
2023/09/13 01:16:32;;;;;;;15.03;11.17;;;;;;;16.65;81.26;100417.00;5014423;28;21026;-75
2023/09/13 01:19:02;;;;;;;15.87;12.57;;;;;;;16.65;81.28;100417.00;5013828;28;20202;-75
2023/09/13 01:21:50;;;;;;;18.00;12.30;;;;;;;16.66;81.19;100413.19;5001026;28;20219;-75
2023/09/13 01:24:39;;;;;;;13.00;11.30;;;;;;;16.69;81.09;100417.78;4989277;28;20220;-75
2023/09/13 01:27:21;;;;;;;15.17;11.47;;;;;;;16.70;80.86;100413.19;5013381;28;20228;-76
2023/09/13 01:29:52;;;;;;;16.13;12.43;;;;;;;16.72;81.15;100419.69;5013033;28;21139;-75
2023/09/13 01:32:21;;;;;;;16.60;12.23;;;;;;;16.75;81.20;100420.84;4995701;28;20245;-76
2023/09/13 01:34:47;;;;;;;12.83;11.23;;;;;;;16.78;81.13;100422.78;5037367;23;20777;-77
2023/09/13 01:37:14;;;;;;;15.53;11.80;;;;;;;16.82;81.59;100428.94;5069742;28;20213;-76
2023/09/13 01:39:40;;;;;;;15.27;11.00;;;;;;;16.86;81.60;100438.47;5049643;28;20209;-76
2023/09/13 01:42:11;;;;;;;15.07;11.83;;;;;;;16.89;81.68;100426.31;5067967;28;20203;-76
2023/09/13 01:44:40;;;;;;;16.80;12.00;;;;;;;16.92;81.47;100430.91;5057836;28;20216;-77
2023/09/13 01:47:09;;;;;;;11.97;10.77;;;;;;;16.96;81.40;100429.78;5038756;28;20258;-76
2023/09/13 01:49:36;;;;;;;14.03;11.13;;;;;;;17.00;81.13;100429.81;5037611;28;20212;-76
2023/09/13 01:52:05;;;;;;;13.43;11.00;;;;;;;17.04;81.40;100430.59;5038173;28;20260;-76
2023/09/13 01:54:33;;;;;;;15.87;12.37;;;;;;;17.05;81.71;100435.56;5035468;28;20850;-76
2023/09/13 01:56:59;;;;;;;17.47;11.73;;;;;;;17.08;81.48;100447.41;5046994;28;20210;-75
2023/09/13 01:59:26;;;;;;;15.03;11.73;;;;;;;17.11;81.88;100446.63;5038073;28;20257;-76
2023/09/13 02:01:52;;;;;;;15.40;11.33;;;;;;;17.12;81.79;100445.53;5036254;28;20241;-76
2023/09/13 02:04:20;;;;;;;17.93;12.13;;;;;;;17.15;81.86;100456.22;5036543;28;20324;-74
2023/09/13 02:06:48;;;;;;;15.90;12.57;;;;;;;17.14;82.02;100496.59;5046249;28;20277;-74
2023/09/13 02:09:14;;;;;;;15.63;11.50;;;;;;;17.03;82.00;100557.88;5052897;28;20200;-76
2023/09/13 02:11:41;;;;;;;16.73;14.27;;;;;;;17.09;82.48;100552.97;5032107;28;20298;-76
2023/09/13 02:14:07;;;;;;;17.17;13.67;;;;;;;17.17;82.54;100551.88;5037853;28;20786;-76
2023/09/13 02:16:33;;;;;;;22.67;14.13;;;;;;;17.22;82.23;100548.88;5034216;28;20217;-76
2023/09/13 02:19:00;;;;;;;17.07;12.87;;;;;;;17.26;81.08;100547.78;5029244;28;20662;-75
2023/09/13 02:21:28;;;;;;;17.07;13.60;;;;;;;17.34;81.18;100530.66;5046088;28;20199;-76
2023/09/13 02:23:55;;;;;;;16.90;13.93;;;;;;;17.39;80.45;100527.69;5030047;28;20215;-76
2023/09/13 02:26:22;;;;;;;16.50;12.50;;;;;;;17.46;81.12;100511.72;5047085;28;20292;-76
2023/09/13 02:28:51;;;;;;;16.07;13.43;;;;;;;17.50;80.33;100507.16;5028935;28;20203;-76
2023/09/13 02:31:22;;;;;;;16.63;12.70;;;;;;;17.57;80.43;100522.44;5028966;28;20216;-76
2023/09/13 02:33:48;;;;;;;16.07;12.10;;;;;;;17.61;79.91;100510.66;5027072;28;20351;-76
2023/09/13 02:36:15;;;;;;;14.90;12.13;;;;;;;17.66;80.02;100517.56;5045863;28;20199;-76
2023/09/13 02:38:42;;;;;;;16.83;13.13;;;;;;;17.69;79.76;100512.22;5029504;28;20223;-76
2023/09/13 02:41:09;;;;;;;14.13;12.00;;;;;;;17.74;79.73;100511.13;5028825;28;20795;-76
2023/09/13 02:43:35;;;;;;;13.83;11.37;;;;;;;17.77;79.24;100494.31;5029395;28;20309;-75
2023/09/13 02:46:02;;;;;;;14.90;12.00;;;;;;;17.81;78.96;100482.50;5035774;28;20313;-75
2023/09/13 02:48:29;;;;;;;16.87;12.47;;;;;;;17.86;78.40;100484.06;5053616;28;21009;-76
2023/09/13 02:50:56;;;;;;;14.27;11.43;;;;;;;17.89;78.39;100483.31;5054109;28;20668;-75
2023/09/13 02:53:22;;;;;;;18.87;12.47;;;;;;;17.93;78.47;100484.88;5053397;28;20285;-76
2023/09/13 02:55:50;;;;;;;12.50;11.20;;;;;;;17.96;78.39;100472.66;5051058;28;20222;-76
2023/09/13 02:58:17;;;;;;;14.33;11.53;;;;;;;17.98;78.28;100467.69;5034118;28;20210;-76
2023/09/13 03:00:44;;;;;;;13.50;11.17;;;;;;;18.00;78.21;100466.19;5034896;28;20230;-75
2023/09/13 03:03:11;;;;;;;16.37;12.23;;;;;;;18.01;78.24;100459.69;5023408;28;20213;-75
2023/09/13 03:05:38;;;;;;;12.97;11.47;;;;;;;18.04;77.86;100436.78;5024412;28;20605;-75
2023/09/13 03:08:05;;;;;;;15.70;11.83;;;;;;;18.05;77.21;100422.31;5029607;28;20583;-76
2023/09/13 03:10:35;;;;;;;15.53;10.97;;;;;;;18.08;77.14;100421.53;5034967;28;20565;-76
2023/09/13 03:13:03;;;;;;;15.53;11.23;;;;;;;18.10;77.12;100412.00;5033885;28;20210;-76
2023/09/13 03:15:32;;;;;;;14.27;11.17;;;;;;;18.13;76.16;100407.81;5027075;28;20234;-75
2023/09/13 03:17:59;;;;;;;17.07;11.40;;;;;;;18.16;77.19;100423.09;5044043;28;20210;-75
2023/09/13 03:20:25;;;;;;;18.50;11.10;;;;;;;18.19;77.20;100438.34;5028281;28;20308;-75
2023/09/13 03:22:56;;;;;;;13.57;10.90;;;;;;;18.20;78.27;100485.31;5027848;28;20199;-76
2023/09/13 03:25:22;;;;;;;13.73;10.87;;;;;;;18.20;80.06;100562.81;5008229;28;20258;-75
2023/09/13 03:27:49;;;;;;;15.03;10.90;;;;;;;18.20;79.20;100594.91;5043020;28;20208;-75
2023/09/13 03:30:18;;;;;;;13.93;11.00;;;;;;;18.22;79.55;100614.03;5024953;28;20202;-76
2023/09/13 03:32:44;;;;;;;15.50;10.87;;;;;;;18.21;79.64;100610.56;5041217;28;20203;-75
2023/09/13 03:35:11;;;;;;;19.47;10.67;;;;;;;18.24;82.26;100612.50;5033555;28;20222;-76
2023/09/13 03:37:38;;;;;;;14.07;9.47;;;;;;;18.21;84.37;100607.16;5032886;28;20286;-73
2023/09/13 03:40:06;;;;;;;15.23;9.90;;;;;;;18.20;83.73;100576.19;5032360;28;20206;-74
2023/09/13 03:42:34;;;;;;;18.73;10.30;;;;;;;18.17;85.21;100556.31;5027735;28;20203;-75
2023/09/13 03:45:02;;;;;;;16.53;9.37;;;;;;;18.15;83.50;100480.34;5030838;28;20969;-74
2023/09/13 03:47:30;;;;;;;15.00;8.37;;;;;;;18.10;85.04;100462.78;5029919;28;20213;-74
2023/09/13 03:49:57;;;;;;;15.30;9.07;;;;;;;18.08;84.10;100454.38;5045716;28;20324;-74
2023/09/13 03:52:23;;;;;;;15.53;9.00;;;;;;;18.07;84.95;100441.38;5027965;28;20210;-75
2023/09/13 03:54:50;;;;;;;16.47;9.83;;;;;;;18.02;84.00;100426.50;5026775;28;20349;-75
2023/09/13 03:57:16;;;;;;;13.43;9.07;;;;;;;18.02;84.44;100420.38;5027644;28;20199;-75
2023/09/13 03:59:44;;;;;;;16.67;9.27;;;;;;;17.99;84.43;100413.88;5046008;28;20959;-75
2023/09/13 04:02:10;;;;;;;13.53;8.60;;;;;;;17.99;85.60;100410.44;5027040;28;20204;-75
2023/09/13 04:04:38;;;;;;;12.67;8.97;;;;;;;17.99;86.62;100407.75;5045230;28;20310;-74
2023/09/13 04:07:05;;;;;;;18.40;9.20;;;;;;;17.97;87.19;100410.84;5030559;28;20551;-74
2023/09/13 04:09:33;;;;;;;10.90;8.40;;;;;;;17.98;85.96;100417.69;5027601;28;20205;-74
2023/09/13 04:11:59;;;;;;;14.40;8.60;;;;;;;17.97;85.42;100418.84;5046014;28;20191;-74
2023/09/13 04:14:26;;;;;;;12.37;8.73;;;;;;;17.97;86.73;100440.22;5046209;28;20761;-74
2023/09/13 04:16:52;;;;;;;14.07;9.03;;;;;;;17.97;86.74;100412.72;5027307;28;20607;-75
2023/09/13 04:19:19;;;;;;;12.60;9.40;;;;;;;17.98;86.28;100401.69;5029459;28;20585;-74
2023/09/13 04:21:46;;;;;;;11.43;9.20;;;;;;;17.98;86.96;100396.31;5029565;28;20213;-74
2023/09/13 04:24:13;;;;;;;12.63;9.70;;;;;;;17.99;86.49;100391.72;5042411;28;20238;-74
2023/09/13 04:26:39;;;;;;;14.47;10.13;;;;;;;18.00;86.64;100387.94;5029428;28;20213;-75
2023/09/13 04:29:06;;;;;;;16.23;10.00;;;;;;;18.00;87.18;100387.94;5029844;28;20214;-75
2023/09/13 04:31:33;;;;;;;13.23;10.00;;;;;;;18.00;87.55;100396.69;5026931;28;20289;-74
2023/09/13 04:33:59;;;;;;;14.00;10.73;;;;;;;18.01;88.56;100398.22;5027619;28;20345;-74
2023/09/13 04:36:31;;;;;;;12.47;10.37;;;;;;;18.01;89.08;100400.91;5027580;28;20198;-74
2023/09/13 04:38:59;;;;;;;16.07;10.60;;;;;;;18.01;88.88;100408.91;5045278;28;20205;-75
2023/09/13 04:41:26;;;;;;;15.03;10.17;;;;;;;18.00;88.96;100407.38;5028297;28;20265;-76
2023/09/13 04:43:52;;;;;;;16.13;11.07;;;;;;;17.98;89.69;100409.69;5025433;28;21073;-75
2023/09/13 04:46:20;;;;;;;15.20;10.87;;;;;;;17.98;89.39;100417.69;5024880;28;20329;-75
2023/09/13 04:48:46;;;;;;;14.17;10.50;;;;;;;17.97;89.17;100423.41;5028322;28;20370;-75
2023/09/13 04:51:13;;;;;;;13.00;10.17;;;;;;;17.95;89.37;100426.47;5027975;28;20932;-75
2023/09/13 04:53:40;;;;;;;14.77;10.33;;;;;;;17.92;89.25;100431.81;5025699;28;20230;-74
2023/09/13 04:56:09;;;;;;;13.00;10.60;;;;;;;17.89;89.41;100438.66;5038489;28;20256;-75
2023/09/13 04:58:40;;;;;;;11.60;9.87;;;;;;;17.87;89.32;100437.50;5024243;28;20202;-75
2023/09/13 05:01:06;;;;;;;11.83;10.43;;;;;;;17.84;89.78;100444.38;5019979;28;20361;-74
2023/09/13 05:03:33;;;;;;;12.03;10.20;;;;;;;17.82;89.38;100445.88;5024564;28;20244;-75
2023/09/13 05:05:59;;;;;;;17.53;12.27;;;;;;;17.78;89.55;100445.88;5043035;28;20207;-75
2023/09/13 05:08:26;;;;;;;17.50;11.87;;;;;;;17.76;89.52;100453.50;5044308;28;20281;-74
2023/09/13 05:10:54;;;;;;;17.60;11.80;;;;;;;17.75;90.18;100464.56;5027950;28;20210;-74
2023/09/13 05:13:21;;;;;;;17.23;11.87;;;;;;;17.73;89.84;100462.28;5046174;28;20247;-74
2023/09/13 05:15:48;;;;;;;17.67;12.10;;;;;;;17.72;90.47;100459.97;5044157;28;20218;-75
2023/09/13 05:18:14;;;;;;;15.80;12.20;;;;;;;17.71;90.23;100461.88;5027051;28;20203;-75
2023/09/13 05:20:40;;;;;;;16.83;12.23;;;;;;;17.70;90.44;100470.28;5051248;28;20209;-74
2023/09/13 05:23:07;;;;;;;19.47;12.77;;;;;;;17.69;91.24;100476.75;5048344;28;20203;-75
2023/09/13 05:25:33;;;;;;;16.37;13.20;;;;;;;17.68;90.74;100483.22;5049556;28;20218;-75
2023/09/13 05:28:00;;;;;;;16.13;11.83;;;;;;;17.67;91.78;100487.81;5050620;28;20236;-74
2023/09/13 05:30:31;;;;;;;18.10;13.20;;;;;;;17.68;91.51;100488.56;5049673;28;20213;-74
2023/09/13 05:32:58;;;;;;;18.67;13.47;;;;;;;17.69;91.42;100484.78;5048712;28;20264;-74
2023/09/13 05:35:24;;;;;;;16.70;13.47;;;;;;;17.70;92.20;100479.03;5045425;28;20218;-74
2023/09/13 05:37:50;;;;;;;19.27;13.30;;;;;;;17.70;91.53;100488.97;5030866;28;20214;-75
2023/09/13 05:40:17;;;;;;;19.07;13.83;;;;;;;17.71;91.85;100493.94;5051079;28;21019;-74
2023/09/13 05:42:43;;;;;;;21.50;14.17;;;;;;;17.72;91.11;100495.47;5048436;28;20210;-74
2023/09/13 05:45:10;;;;;;;16.33;13.50;;;;;;;17.72;90.65;100489.34;5026731;28;20234;-75
2023/09/13 05:47:37;;;;;;;19.67;14.27;;;;;;;17.71;91.20;100501.94;5027588;28;20210;-74
2023/09/13 05:50:05;;;;;;;20.27;14.30;;;;;;;17.73;91.61;100491.66;5045836;28;20213;-74
2023/09/13 05:52:33;;;;;;;18.03;14.17;;;;;;;17.75;91.34;100485.94;5045501;28;20203;-74
2023/09/13 05:54:59;;;;;;;19.07;14.73;;;;;;;17.76;91.62;100496.25;5045621;28;20230;-74
2023/09/13 05:57:27;;;;;;;18.00;14.37;;;;;;;17.77;91.49;100483.66;5046957;28;20206;-75
2023/09/13 05:59:54;;;;;;;22.63;15.20;;;;;;;17.78;91.07;100495.84;5045889;28;20199;-75
2023/09/13 06:02:20;;;;;;;21.67;14.63;;;;;;;17.80;91.16;100498.94;5043747;28;20199;-74
2023/09/13 06:04:48;;;;;;;20.00;15.70;;;;;;;17.80;90.89;100501.59;5043707;28;20218;-74
2023/09/13 06:07:14;;;;;;;18.77;15.00;;;;;;;17.82;91.69;100496.63;5043549;28;20207;-74
2023/09/13 06:09:40;;;;;;;23.63;17.10;;;;;;;17.83;91.63;100508.84;5039379;28;20589;-75
2023/09/13 06:12:07;;;;;;;18.73;15.33;;;;;;;17.85;92.40;100503.91;5045612;28;20210;-74
2023/09/13 06:14:34;;;;;;;24.13;15.93;;;;;;;17.87;92.19;100509.63;5047497;28;20222;-74
2023/09/13 06:17:01;;;;;;;24.10;18.27;;;;;;;17.90;92.25;100504.31;5046247;28;20200;-75
2023/09/13 06:19:27;;;;;;;22.37;17.23;;;;;;;17.95;92.44;100508.53;5046243;28;20198;-74
2023/09/13 06:21:55;;;;;;;26.77;17.27;;;;;;;17.98;91.97;100507.78;5043418;28;20230;-74
2023/09/13 06:24:22;;;;;;;22.70;17.13;;;;;;;18.03;92.56;100508.19;5044513;28;20304;-74
2023/09/13 06:26:48;;;;;;;25.27;19.17;;;;;;;18.06;92.68;100518.09;5045700;28;21700;-74
2023/09/13 06:29:15;;;;;;;23.57;18.90;;;;;;;18.11;91.85;100517.75;5044577;28;20210;-74
2023/09/13 06:31:41;;;;;;;27.43;21.10;;;;;;;18.18;92.43;100527.69;5044405;28;20209;-75
2023/09/13 06:34:08;;;;;;;33.40;21.57;;;;;;;18.26;92.87;100519.31;5044247;28;20869;-75
2023/09/13 06:36:35;;;;;;;33.93;22.13;;;;;;;18.36;92.82;100528.56;5040257;28;21142;-74
2023/09/13 06:39:02;;;;;;;35.50;24.43;;;;;;;18.45;92.39;100524.38;5042373;28;20768;-75
2023/09/13 06:41:29;;;;;;;33.10;23.60;;;;;;;18.56;93.58;100527.06;5042628;28;20247;-74
2023/09/13 06:43:58;;;;;;;35.53;24.40;;;;;;;18.65;93.64;100517.53;5023743;28;20211;-74
2023/09/13 06:46:24;;;;;;;30.27;23.07;;;;;;;18.74;93.63;100525.94;5042503;28;20250;-75
2023/09/13 06:48:50;;;;;;;35.13;24.53;;;;;;;18.84;93.58;100533.19;5041238;28;20210;-75
2023/09/13 06:51:17;;;;;;;31.60;23.43;;;;;;;18.97;94.11;100530.91;5042478;28;20214;-75
2023/09/13 06:53:43;;;;;;;36.80;25.20;;;;;;;19.05;93.39;100529.78;5043953;28;20306;-75
2023/09/13 06:56:11;;;;;;;32.03;25.47;;;;;;;19.14;93.44;100541.63;5042509;28;20207;-74
2023/09/13 06:58:37;;;;;;;30.43;22.93;;;;;;;19.22;93.32;100548.53;5043962;28;20213;-75
2023/09/13 07:01:03;;;;;;;30.50;23.27;;;;;;;19.27;92.70;100542.03;5041092;28;20210;-74
2023/09/13 07:03:30;;;;;;;28.53;21.30;;;;;;;19.34;92.60;100552.72;5039033;28;20306;-75
2023/09/13 07:05:56;;;;;;;29.87;21.07;;;;;;;19.39;92.20;100549.66;5025148;28;20929;-75
2023/09/13 07:08:23;;;;;;;27.20;21.10;;;;;;;19.45;92.87;100551.56;5040451;28;20210;-75
2023/09/13 07:10:49;;;;;;;29.73;22.83;;;;;;;19.52;92.55;100550.81;5038206;28;20229;-74
2023/09/13 07:13:17;;;;;;;29.87;21.27;;;;;;;19.59;92.75;100551.56;5040632;28;20200;-74
2023/09/13 07:15:44;;;;;;;28.63;22.47;;;;;;;19.68;93.06;100549.25;5042031;28;20975;-74
2023/09/13 07:18:10;;;;;;;33.47;23.73;;;;;;;19.78;92.57;100553.81;5042499;28;20202;-74
2023/09/13 07:20:36;;;;;;;32.00;23.10;;;;;;;19.90;93.16;100564.09;5040944;28;20198;-75
2023/09/13 07:23:03;;;;;;;28.73;22.97;;;;;;;20.01;93.02;100558.69;5041009;28;21553;-75
2023/09/13 07:25:29;;;;;;;32.50;21.23;;;;;;;20.12;91.52;100564.84;5039262;28;20242;-75
2023/09/13 07:27:56;;;;;;;25.17;21.03;;;;;;;20.21;91.23;100571.28;5040595;28;20211;-75
2023/09/13 07:30:23;;;;;;;24.07;18.87;;;;;;;20.30;89.74;100560.91;5034973;28;20207;-75
2023/09/13 07:32:50;;;;;;;20.53;17.43;;;;;;;20.40;89.36;100568.16;5042157;28;20206;-75
2023/09/13 07:35:16;;;;;;;22.57;18.17;;;;;;;20.51;89.49;100563.47;5037125;28;20231;-75
2023/09/13 07:37:43;;;;;;;18.57;16.13;;;;;;;20.62;89.71;100571.47;5039049;28;20203;-75
2023/09/13 07:40:11;;;;;;;16.77;13.90;;;;;;;20.73;88.74;100569.47;5035294;28;21028;-75
2023/09/13 07:42:37;;;;;;;15.50;12.27;;;;;;;20.81;88.21;100570.97;5033214;28;20202;-75
2023/09/13 07:45:05;;;;;;;12.50;11.30;;;;;;;20.90;87.01;100576.69;5037791;28;20228;-75
2023/09/13 07:47:32;;;;;;;14.13;11.13;;;;;;;20.98;86.57;100578.94;5037102;28;20253;-75
2023/09/13 07:50:00;;;;;;;16.33;9.40;;;;;;;21.04;86.46;100580.03;5035336;28;20206;-76
2023/09/13 07:52:26;;;;;;;9.97;8.47;;;;;;;21.10;86.28;100588.41;5032856;28;20190;-75
2023/09/13 07:54:53;;;;;;;9.13;7.67;;;;;;;21.14;85.29;100591.84;5036419;28;20222;-75
2023/09/13 07:57:19;;;;;;;8.50;7.60;;;;;;;21.24;85.94;100588.31;5037597;28;21219;-75
2023/09/13 07:59:46;;;;;;;10.90;7.80;;;;;;;21.35;86.48;100592.44;5037683;28;20203;-75
2023/09/13 08:02:12;;;;;;;9.10;6.63;;;;;;;21.43;84.58;100593.88;5035999;28;20217;-75
2023/09/13 08:04:40;;;;;;;10.93;6.00;;;;;;;21.46;82.93;100584.25;5038194;28;20226;-75
2023/09/13 08:07:06;;;;;;;8.00;5.80;;;;;;;21.47;82.55;100589.25;5018282;28;21630;-75
2023/09/13 08:09:34;;;;;;;8.97;5.23;;;;;;;21.46;80.86;100587.72;5036583;28;20257;-75
2023/09/13 08:12:00;;;;;;;7.80;5.10;;;;;;;21.47;81.99;100591.19;5038790;28;20303;-75
2023/09/13 08:14:27;;;;;;;7.77;4.80;;;;;;;21.43;79.61;100601.94;5018658;28;20233;-76
2023/09/13 08:16:53;;;;;;;6.37;4.97;;;;;;;21.41;80.32;100593.53;5035530;28;21752;-76
2023/09/13 08:19:20;;;;;;;7.77;4.80;;;;;;;21.40;79.35;100599.28;5036162;28;20204;-75
2023/09/13 08:21:48;;;;;;;6.83;4.73;;;;;;;21.34;79.61;100606.25;5032511;28;20218;-75
2023/09/13 08:24:14;;;;;;;7.27;4.70;;;;;;;21.26;77.44;100610.91;5019686;28;20237;-75
2023/09/13 08:26:41;;;;;;;6.10;4.33;;;;;;;21.27;77.56;100614.38;5035982;28;20230;-75
2023/09/13 08:29:07;;;;;;;8.57;3.90;;;;;;;21.28;78.71;100614.00;5035699;28;20215;-75
2023/09/13 08:31:34;;;;;;;5.93;4.03;;;;;;;21.30;78.77;100614.34;5034999;28;20296;-76
2023/09/13 08:34:00;;;;;;;5.03;4.37;;;;;;;21.35;79.45;100618.53;5034854;28;20227;-75
2023/09/13 08:36:26;;;;;;;5.83;4.43;;;;;;;21.41;80.56;100622.31;5035473;28;20213;-75
2023/09/13 08:38:55;;;;;;;7.53;5.00;;;;;;;21.50;80.69;100622.63;5035131;28;20694;-75
2023/09/13 08:41:22;;;;;;;6.43;4.27;;;;;;;21.57;81.06;100617.94;5032346;28;20420;-75
2023/09/13 08:43:49;;;;;;;4.90;4.00;;;;;;;21.66;79.54;100626.31;5033340;28;20215;-76
2023/09/13 08:46:18;;;;;;;5.33;3.90;;;;;;;21.68;77.69;100621.31;5033624;28;20344;-75
2023/09/13 08:48:47;;;;;;;6.20;4.00;;;;;;;21.72;77.76;100619.38;5034593;28;21145;-75
2023/09/13 08:51:14;;;;;;;5.30;3.97;;;;;;;21.76;78.03;100628.16;5035481;28;20209;-75
2023/09/13 08:53:42;;;;;;;4.67;3.70;;;;;;;21.79;77.11;100613.16;5034115;28;20230;-75
2023/09/13 08:56:10;;;;;;;4.00;3.60;;;;;;;21.84;76.26;100612.72;5030742;28;20228;-75
2023/09/13 08:58:37;;;;;;;5.43;3.53;;;;;;;21.95;79.35;100622.22;5032888;28;20217;-75
2023/09/13 09:01:05;;;;;;;5.30;3.93;;;;;;;22.05;77.30;100631.31;5035475;28;20202;-75
2023/09/13 09:03:34;;;;;;;10.77;3.40;;;;;;;22.20;76.53;100617.31;5016055;28;20309;-75
2023/09/13 09:06:01;;;;;;;3.40;3.10;;;;;;;22.33;77.24;100622.91;5034387;28;21181;-75
2023/09/13 09:08:29;;;;;;;3.90;3.40;;;;;;;22.46;78.35;100621.25;5031328;28;20237;-76
2023/09/13 09:10:59;;;;;;;5.17;2.60;;;;;;;22.62;74.29;100629.50;5030850;28;20199;-76
2023/09/13 09:13:29;;;;;;;3.30;2.80;;;;;;;22.67;72.84;100629.06;5029484;28;20206;-76
2023/09/13 09:15:57;;;;;;;3.27;2.97;;;;;;;22.69;73.53;100624.78;5032788;28;20199;-76
2023/09/13 09:18:26;;;;;;;4.15;2.80;;;;;;;22.70;73.18;100626.31;5030716;28;20210;-76
2023/09/13 09:20:53;;;;;;;3.45;3.10;;;;;;;22.69;73.10;100638.25;5032402;28;20204;-76
2023/09/13 09:23:21;;;;;;;4.70;3.17;;;;;;;22.67;72.87;100637.13;5031406;28;20772;-76
2023/09/13 09:25:50;;;;;;;4.35;2.67;;;;;;;22.66;74.05;100636.34;5032565;28;21560;-76
2023/09/13 09:28:17;;;;;;;5.28;2.83;;;;;;;22.63;72.38;100641.78;5033692;28;20948;-75
2023/09/13 09:30:45;;;;;;;4.78;2.97;;;;;;;22.64;72.75;100641.41;5032263;28;20210;-76
2023/09/13 09:33:12;;;;;;;3.33;2.55;;;;;;;22.73;72.54;100633.59;5034408;28;20211;-76
2023/09/13 09:35:38;;;;;;;9.10;3.25;;;;;;;22.79;72.07;100639.25;5030203;28;20219;-76
2023/09/13 09:38:21;;;;;;;4.45;3.15;;;;;;;22.77;70.71;100630.84;5033279;28;20213;-76
2023/09/13 09:40:47;;;;;;;5.13;3.10;;;;;;;22.79;71.46;100631.19;5029306;28;20272;-76
2023/09/13 09:43:14;;;;;;;7.78;3.03;;;;;;;22.75;70.93;100641.25;5030473;28;20218;-76
2023/09/13 09:45:40;;;;;;;5.20;3.40;;;;;;;22.65;70.20;100639.44;5031629;28;20207;-76
2023/09/13 09:48:11;;;;;;;4.97;3.30;;;;;;;22.56;71.07;100639.19;5034156;28;20211;-76
2023/09/13 09:50:39;;;;;;;4.47;3.35;;;;;;;22.52;71.75;100646.56;5032746;28;20203;-76
2023/09/13 09:53:09;;;;;;;5.85;3.33;;;;;;;22.47;72.16;100649.69;5016723;28;20208;-76
2023/09/13 09:55:36;;;;;;;5.13;3.53;;;;;;;22.41;71.95;100656.66;5017707;28;20237;-76
2023/09/13 09:58:03;;;;;;;6.82;3.80;;;;;;;22.38;71.95;100652.06;5032979;28;20736;-76
2023/09/13 10:00:30;;;;;;;4.35;3.95;;;;;;;22.39;72.05;100656.28;5039905;28;20207;-77
2023/09/13 10:02:56;;;;;;;4.35;3.72;;;;;;;22.37;72.58;100654.00;5042093;28;20207;-77
2023/09/13 10:05:24;;;;;;;4.38;3.60;;;;;;;22.40;73.79;100657.84;5034724;28;20478;-77
2023/09/13 10:07:54;;;;;;;3.55;3.25;;;;;;;22.37;73.72;100658.63;5019287;28;20215;-77
2023/09/13 10:10:30;;;;;;;4.40;3.40;;;;;;;22.40;74.10;100657.84;5036430;28;20210;-77
2023/09/13 10:12:57;;;;;;;5.10;3.28;;;;;;;22.38;72.08;100660.91;5012858;28;20191;-77
2023/09/13 10:15:24;;;;;;;4.85;3.50;;;;;;;22.38;72.65;100655.53;5033729;28;20731;-77
2023/09/13 10:17:51;;;;;;;8.18;3.58;;;;;;;22.33;72.19;100669.44;5031206;28;20528;-77
2023/09/13 10:20:19;;;;;;;5.03;4.00;;;;;;;22.29;71.85;100668.69;5034833;28;20218;-76
2023/09/13 10:22:49;;;;;;;3.20;2.90;;;;;;;22.34;73.25;100673.66;5034273;28;20206;-76
2023/09/13 10:25:18;;;;;;;4.17;3.50;;;;;;;22.36;72.58;100668.63;5032688;28;20227;-76
2023/09/13 10:27:54;;;;;;;8.30;3.40;;;;;;;22.44;73.09;100672.00;5030530;28;20222;-77
2023/09/13 10:30:25;;;;;;;6.07;3.50;;;;;;;22.53;72.29;100666.91;5033491;28;20297;-76
2023/09/13 10:32:58;;;;;;;3.70;3.30;;;;;;;22.58;73.80;100661.09;5031526;28;20253;-76
2023/09/13 10:35:28;;;;;;;4.43;3.10;;;;;;;22.66;72.09;100670.59;5029399;28;20977;-77
2023/09/13 10:38:03;;;;;;;3.90;3.50;;;;;;;22.78;71.54;100673.53;5031260;28;20207;-77
2023/09/13 10:40:36;;;;;;;5.78;3.45;;;;;;;22.86;73.75;100671.50;5033773;28;20205;-77
2023/09/13 10:43:03;;;;;;;4.47;3.55;;;;;;;22.87;69.88;100675.72;5032626;28;20210;-76
2023/09/13 10:45:30;;;;;;;2.78;2.58;;;;;;;22.87;70.59;100687.22;5031801;28;20870;-76
2023/09/13 10:47:58;;;;;;;2.78;2.30;;;;;;;22.85;68.36;100683.41;5033187;28;20971;-77
2023/09/13 10:50:27;;;;;;;1.90;1.70;;;;;;;22.83;68.74;100686.53;5035046;28;20373;-76
2023/09/13 10:52:54;;;;;;;1.95;1.77;;;;;;;22.84;68.66;100682.66;5032544;28;20199;-77
2023/09/13 10:55:23;;;;;;;2.00;1.73;;;;;;;22.90;70.37;100688.34;5032528;28;20736;-77
2023/09/13 10:57:51;;;;;;;1.90;1.80;;;;;;;22.96;69.37;100695.56;5032497;28;20218;-77
2023/09/13 11:00:19;;;;;;;1.48;1.30;;;;;;;22.98;66.49;100689.78;5030611;28;20203;-77
2023/09/13 11:02:46;;;;;;;1.93;1.43;;;;;;;23.06;68.91;100697.38;5032142;28;20210;-76
2023/09/13 11:05:14;;;;;;;2.57;2.00;;;;;;;23.14;68.94;100701.50;5013921;28;20234;-77
2023/09/13 11:07:43;;;;;;;2.15;1.83;;;;;;;23.23;67.95;100696.38;5032631;28;20216;-76
2023/09/13 11:10:13;;;;;;;1.63;1.52;;;;;;;23.37;67.03;100700.03;5031190;28;20946;-76
2023/09/13 11:12:43;;;;;;;2.45;1.70;;;;;;;23.51;67.32;100703.25;5026540;28;20282;-76
2023/09/13 11:15:13;;;;;;;1.85;1.60;;;;;;;23.59;64.10;100704.69;5027838;28;20219;-77